createdAt,value
2018-06-04T00:03:08.839Z,96286.56
2018-06-04T00:06:33.651Z,96287.38
2018-06-04T00:09:59.251Z,96288.84
2018-06-04T00:13:24.056Z,96281.41
2018-06-04T00:16:48.417Z,96278.88
2018-06-04T00:20:13.226Z,96283.93
2018-06-04T00:23:37.879Z,96284.53
2018-06-04T00:27:02.767Z,96280.55
2018-06-04T00:30:27.669Z,96273.17
2018-06-04T00:33:52.466Z,96274.78
2018-06-04T00:37:17.398Z,96269.38
2018-06-04T00:40:42.207Z,96269.80
2018-06-04T00:44:06.950Z,96269.25
2018-06-04T00:47:31.706Z,96277.64
2018-06-04T00:50:57.066Z,96271.73
2018-06-04T00:54:21.506Z,96271.87
2018-06-04T00:57:46.447Z,96277.34
2018-06-04T01:01:11.194Z,96271.47
2018-06-04T01:04:36.128Z,96275.73
2018-06-04T01:08:00.978Z,96279.80
2018-06-04T01:11:25.729Z,96282.77
2018-06-04T01:14:50.457Z,96287.69
2018-06-04T01:18:15.216Z,96288.99
2018-06-04T01:21:39.906Z,96281.89
2018-06-04T01:25:04.827Z,96277.47
2018-06-04T01:28:29.649Z,96284.26
2018-06-04T01:31:55.727Z,96282.43
2018-06-04T01:35:20.727Z,96280.97
2018-06-04T01:38:45.771Z,96275.70
2018-06-04T01:42:10.780Z,96274.91
2018-06-04T01:45:35.631Z,96286.66
2018-06-04T01:49:00.471Z,96281.73
2018-06-04T01:52:25.645Z,96274.39
2018-06-04T01:55:50.459Z,96273.77
2018-06-04T01:59:16.323Z,96269.11
2018-06-04T02:02:41.241Z,96263.65
2018-06-04T02:06:06.125Z,96262.19
2018-06-04T02:09:31.435Z,96268.30
2018-06-04T02:12:56.431Z,96267.88
2018-06-04T02:16:21.257Z,96266.73
2018-06-04T02:19:46.225Z,96265.77
2018-06-04T02:23:10.792Z,96267.09
2018-06-04T02:26:35.609Z,96264.73
2018-06-04T02:30:00.450Z,96268.77
2018-06-04T02:33:25.207Z,96263.84
2018-06-04T02:36:49.999Z,96266.87
2018-06-04T02:40:14.812Z,96272.13
2018-06-04T02:43:39.616Z,96269.45
2018-06-04T02:47:04.555Z,96266.83
2018-06-04T02:50:29.351Z,96271.81
2018-06-04T02:53:54.074Z,96276.15
2018-06-04T02:57:18.870Z,96274.67
2018-06-04T03:00:43.637Z,96273.38
2018-06-04T03:04:08.412Z,96278.28
2018-06-04T03:07:33.205Z,96281.71
2018-06-04T03:10:58.046Z,96282.31
2018-06-04T03:14:22.922Z,96287.00
2018-06-04T03:17:47.634Z,96283.98
2018-06-04T03:21:12.373Z,96278.71
2018-06-04T03:24:37.145Z,96283.61
2018-06-04T03:28:02.008Z,96282.94
2018-06-04T03:31:26.727Z,96284.97
2018-06-04T03:34:51.584Z,96285.98
2018-06-04T03:38:16.245Z,96272.98
2018-06-04T03:41:40.932Z,96274.64
2018-06-04T03:45:05.814Z,96281.35
2018-06-04T03:48:30.531Z,96273.84
2018-06-04T03:51:55.172Z,96271.94
2018-06-04T03:55:20.064Z,96274.95
2018-06-04T03:58:45.143Z,96267.52
2018-06-04T04:02:10.062Z,96261.23
2018-06-04T04:05:34.876Z,96266.09
2018-06-04T04:08:59.646Z,96268.23
2018-06-04T04:12:24.303Z,96266.20
2018-06-04T04:15:49.080Z,96264.42
2018-06-04T04:19:14.032Z,96274.73
2018-06-04T04:22:38.864Z,96269.19
2018-06-04T04:26:03.766Z,96268.48
2018-06-04T04:29:28.553Z,96261.59
2018-06-04T04:32:53.174Z,96259.95
2018-06-04T04:36:17.992Z,96261.41
2018-06-04T04:39:42.455Z,96257.55
2018-06-04T04:43:07.106Z,96263.78
2018-06-04T04:46:31.840Z,96261.63
2018-06-04T04:49:56.573Z,96260.83
2018-06-04T04:53:21.500Z,96262.01
2018-06-04T04:56:46.194Z,96256.34
2018-06-04T05:00:10.992Z,96254.45
2018-06-04T05:03:35.450Z,96255.93
2018-06-04T05:07:00.220Z,96260.34
2018-06-04T05:10:25.244Z,96259.23
2018-06-04T05:13:49.983Z,96255.78
2018-06-04T05:17:14.910Z,96259.68
2018-06-04T05:20:39.593Z,96257.39
2018-06-04T05:24:04.645Z,96249.45
2018-06-04T05:27:30.134Z,96252.02
2018-06-04T05:30:54.849Z,96242.79
2018-06-04T05:34:19.673Z,96248.45
2018-06-04T05:37:44.661Z,96248.03
2018-06-04T05:41:09.443Z,96244.56
2018-06-04T05:44:34.250Z,96247.77
2018-06-04T05:47:58.871Z,96241.05
2018-06-04T05:51:23.848Z,96240.38
2018-06-04T05:54:48.623Z,96245.13
2018-06-04T05:58:13.508Z,96248.45
2018-06-04T06:01:38.620Z,96244.39
2018-06-04T06:05:03.365Z,96236.03
2018-06-04T06:08:28.123Z,96233.49
2018-06-04T06:11:53.677Z,96231.70
2018-06-04T06:15:18.472Z,96227.67
2018-06-04T06:18:43.299Z,96219.04
2018-06-04T06:22:07.849Z,96220.03
2018-06-04T06:25:32.674Z,96218.02
2018-06-04T06:28:57.584Z,96222.20
2018-06-04T06:32:22.398Z,96223.55
2018-06-04T06:35:47.184Z,96220.44
2018-06-04T06:39:12.088Z,96216.92
2018-06-04T06:42:36.819Z,96215.80
2018-06-04T06:46:01.589Z,96214.91
2018-06-04T06:49:26.404Z,96214.27
2018-06-04T06:52:51.113Z,96210.75
2018-06-04T06:56:15.420Z,96206.27
2018-06-04T06:59:40.097Z,96203.77
2018-06-04T07:03:04.767Z,96208.18
2018-06-04T07:06:29.205Z,96208.86
2018-06-04T07:09:53.907Z,96210.33
2018-06-04T07:13:18.554Z,96210.78
2018-06-04T07:16:43.262Z,96204.28
2018-06-04T07:20:07.900Z,96206.83
2018-06-04T07:23:32.777Z,96199.61
2018-06-04T07:26:57.511Z,96199.88
2018-06-04T07:30:22.931Z,96191.83
2018-06-04T07:33:48.049Z,96192.66
2018-06-04T07:37:12.723Z,96184.92
2018-06-04T07:40:37.419Z,96186.23
2018-06-04T07:44:02.356Z,96175.45
2018-06-04T07:47:32.138Z,96169.79
2018-06-04T07:50:56.861Z,96171.66
2018-06-04T07:54:21.695Z,96174.06
2018-06-04T07:57:47.441Z,96171.73
2018-06-04T08:01:12.231Z,96173.01
2018-06-04T08:04:37.140Z,96169.42
2018-06-04T08:08:01.601Z,96160.97
2018-06-04T08:11:26.008Z,96169.91
2018-06-04T08:14:51.830Z,96167.53
2018-06-04T08:18:16.851Z,96170.10
2018-06-04T08:21:41.697Z,96166.76
2018-06-04T08:25:06.566Z,96162.19
2018-06-04T08:28:31.676Z,96161.70
2018-06-04T08:31:56.418Z,96160.03
2018-06-04T08:35:20.957Z,96152.84
2018-06-04T08:38:45.331Z,96155.90
2018-06-04T08:42:10.133Z,96147.45
2018-06-04T08:45:34.978Z,96146.98
2018-06-04T08:48:59.685Z,96143.02
2018-06-04T08:52:24.350Z,96137.43
2018-06-04T08:55:49.014Z,96137.06
2018-06-04T08:59:14.209Z,96137.05
2018-06-04T09:04:48.182Z,96132.48
2018-06-04T09:08:13.197Z,96137.42
2018-06-04T09:11:38.475Z,96135.44
2018-06-04T09:15:03.174Z,96143.67
2018-06-04T09:18:27.813Z,96135.09
2018-06-04T09:21:52.566Z,96124.70
2018-06-04T09:25:16.920Z,96122.51
2018-06-04T09:28:41.547Z,96115.77
2018-06-04T09:32:06.392Z,96119.74
2018-06-04T09:35:31.096Z,96117.63
2018-06-04T09:38:55.796Z,96108.02
2018-06-04T09:42:20.653Z,96105.02
2018-06-04T09:45:45.895Z,96106.16
2018-06-04T09:49:10.698Z,96109.69
2018-06-04T09:52:35.493Z,96103.44
2018-06-04T09:56:00.116Z,96097.39
2018-06-04T09:59:24.856Z,96102.64
2018-06-04T10:02:49.452Z,96101.74
2018-06-04T10:06:14.120Z,96095.97
2018-06-04T10:09:39.414Z,96094.58
2018-06-04T10:13:03.792Z,96101.39
2018-06-04T10:16:28.569Z,96089.16
2018-06-04T10:19:53.291Z,96091.09
2018-06-04T10:23:17.988Z,96080.45
2018-06-04T10:26:42.694Z,96075.25
2018-06-04T10:30:07.567Z,96075.75
2018-06-04T10:33:32.855Z,96077.40
2018-06-04T10:36:57.655Z,96073.37
2018-06-04T10:40:22.590Z,96071.27
2018-06-04T10:43:46.973Z,96064.08
2018-06-04T10:47:11.731Z,96060.83
2018-06-04T10:50:36.425Z,96060.45
2018-06-04T10:54:01.132Z,96057.73
2018-06-04T10:57:26.459Z,96055.02
2018-06-04T11:00:51.450Z,96050.58
2018-06-04T11:04:16.194Z,96052.91
2018-06-04T11:07:40.955Z,96053.68
2018-06-04T11:11:06.382Z,96051.77
2018-06-04T11:14:32.163Z,96047.09
2018-06-04T11:17:57.110Z,96049.96
2018-06-04T11:21:22.048Z,96051.46
2018-06-04T11:24:46.816Z,96041.99
2018-06-04T11:28:12.649Z,96034.00
2018-06-04T11:31:37.920Z,96037.77
2018-06-04T11:35:05.018Z,96024.27
2018-06-04T11:38:29.811Z,96019.03
2018-06-04T11:41:55.510Z,96018.17
2018-06-04T11:45:20.806Z,96015.06
2018-06-04T11:48:45.451Z,96014.70
2018-06-04T11:52:10.246Z,96008.97
2018-06-04T11:55:34.960Z,96002.15
2018-06-04T11:58:59.674Z,95998.04
2018-06-04T12:02:25.938Z,95995.30
2018-06-04T12:05:50.775Z,95989.52
2018-06-04T12:09:15.542Z,95985.05
2018-06-04T12:12:40.286Z,95971.70
2018-06-04T12:16:06.190Z,95970.38
2018-06-04T12:19:30.941Z,95966.47
2018-06-04T12:22:55.604Z,95969.83
2018-06-04T12:26:20.240Z,95969.76
2018-06-04T12:29:45.032Z,95959.80
2018-06-04T12:33:09.710Z,95947.91
2018-06-04T12:36:34.740Z,95942.89
2018-06-04T12:40:00.084Z,95937.87
2018-06-04T12:43:24.844Z,95923.63
2018-06-04T12:46:49.478Z,95918.59
2018-06-04T12:50:14.330Z,95914.27
2018-06-04T12:53:39.064Z,95916.23
2018-06-04T12:57:03.350Z,95903.38
2018-06-04T13:00:28.030Z,95902.52
2018-06-04T13:03:52.386Z,95891.87
2018-06-04T13:07:17.126Z,95893.59
2018-06-04T13:10:42.898Z,95898.84
2018-06-04T13:14:07.899Z,95898.14
2018-06-04T13:17:33.180Z,95892.31
2018-06-04T13:20:57.886Z,95882.30
2018-06-04T13:24:23.603Z,95869.78
2018-06-04T13:27:49.151Z,95863.73
2018-06-04T13:31:14.288Z,95859.08
2018-06-04T13:34:38.640Z,95855.23
2018-06-04T13:38:04.104Z,95851.11
2018-06-04T13:41:28.803Z,95853.64
2018-06-04T13:44:53.180Z,95837.72
2018-06-04T13:48:17.950Z,95824.86
2018-06-04T13:51:42.681Z,95825.93
2018-06-04T13:55:06.975Z,95843.09
2018-06-04T13:58:34.648Z,95852.00
2018-06-04T14:01:59.326Z,95862.20
2018-06-04T14:05:24.019Z,95854.95
2018-06-04T14:08:48.696Z,95844.69
2018-06-04T14:12:13.362Z,95849.96
2018-06-04T14:15:38.136Z,95857.50
2018-06-04T14:19:03.154Z,95844.53
2018-06-04T14:22:27.983Z,95852.17
2018-06-04T14:25:52.862Z,95867.80
2018-06-04T14:29:17.590Z,95877.59
2018-06-04T14:32:42.407Z,95865.03
2018-06-04T14:36:07.115Z,95843.77
2018-06-04T14:39:31.981Z,95848.13
2018-06-04T14:42:56.754Z,95857.00
2018-06-04T14:46:21.518Z,95853.35
2018-06-04T14:49:46.255Z,95845.09
2018-06-04T14:53:10.616Z,95841.64
2018-06-04T14:56:35.364Z,95836.83
2018-06-04T15:00:02.174Z,95857.46
2018-06-04T15:03:26.856Z,95850.39
2018-06-04T15:06:51.588Z,95853.42
2018-06-04T15:10:16.369Z,95839.94
2018-06-04T15:13:41.058Z,95834.78
2018-06-04T15:17:05.830Z,95831.75
2018-06-04T15:20:30.131Z,95831.14
2018-06-04T15:23:54.786Z,95850.69
2018-06-04T15:27:19.511Z,95852.38
2018-06-04T15:30:44.212Z,95836.34
2018-06-04T15:34:09.711Z,95829.22
2018-06-04T15:37:34.952Z,95836.78
2018-06-04T15:40:59.536Z,95830.97
2018-06-04T15:44:24.213Z,95842.74
2018-06-04T15:47:49.046Z,95852.45
2018-06-04T15:51:13.698Z,95857.25
2018-06-04T15:54:38.402Z,95863.28
2018-06-04T15:58:04.213Z,95861.38
2018-06-04T16:01:29.439Z,95857.67
2018-06-04T16:04:54.136Z,95868.93
2018-06-04T16:08:19.197Z,95878.97
2018-06-04T16:11:43.900Z,95899.75
2018-06-04T16:15:08.493Z,95925.81
2018-06-04T16:18:34.010Z,95911.81
2018-06-04T16:21:59.439Z,95898.15
2018-06-04T16:25:26.999Z,95890.55
2018-06-04T16:28:53.311Z,95894.33
2018-06-04T16:32:18.345Z,95901.27
2018-06-04T16:35:43.233Z,95896.45
2018-06-04T16:39:10.524Z,95889.65
2018-06-04T16:42:36.832Z,95888.21
2018-06-04T16:46:02.209Z,95877.65
2018-06-04T16:49:26.964Z,95876.67
2018-06-04T16:52:51.726Z,95880.52
2018-06-04T16:59:51.793Z,95887.42
2018-06-04T17:03:17.286Z,95891.02
2018-06-04T17:06:42.056Z,95895.42
2018-06-04T17:10:07.498Z,95904.13
2018-06-04T17:13:32.317Z,95916.55
2018-06-04T17:16:57.741Z,95917.80
2018-06-04T17:20:24.471Z,95932.33
2018-06-04T17:23:49.493Z,95930.64
2018-06-04T17:27:14.385Z,95938.23
2018-06-04T17:30:39.192Z,95937.42
2018-06-04T17:34:04.350Z,95927.33
2018-06-04T17:37:29.974Z,95929.28
2018-06-04T17:40:54.983Z,95921.56
2018-06-04T17:48:50.464Z,95915.36
2018-06-04T17:52:16.413Z,95924.45
2018-06-04T17:55:41.374Z,95909.31
2018-06-04T17:59:07.512Z,95915.16
2018-06-04T18:02:33.214Z,95911.95
2018-06-04T18:05:58.138Z,95919.53
2018-06-04T18:09:22.916Z,95932.28
2018-06-04T18:12:48.524Z,95942.50
2018-06-04T18:16:13.359Z,95950.17
2018-06-04T18:19:39.015Z,95957.14
2018-06-04T18:23:05.377Z,95951.25
2018-06-04T18:26:31.126Z,95953.48
2018-06-04T18:29:55.931Z,95953.37
2018-06-04T18:33:20.866Z,95947.04
2018-06-04T18:36:45.759Z,95939.97
2018-06-04T18:40:10.684Z,95939.88
2018-06-04T18:43:35.596Z,95948.63
2018-06-04T18:47:00.584Z,95955.53
2018-06-04T18:50:25.399Z,95961.91
2018-06-04T18:53:51.508Z,95951.86
2018-06-04T18:57:17.607Z,95953.73
2018-06-04T19:00:42.923Z,95951.40
2018-06-04T19:04:08.542Z,95955.14
2018-06-04T19:07:46.544Z,95957.12
2018-06-04T19:11:15.154Z,95975.40
2018-06-04T19:14:43.740Z,95988.90
2018-06-04T19:18:10.934Z,95994.03
2018-06-04T19:21:35.347Z,96001.95
2018-06-04T19:25:00.186Z,96025.85
2018-06-04T19:28:24.980Z,96037.19
2018-06-04T19:31:49.818Z,96048.50
2018-06-04T19:35:14.616Z,96052.14
2018-06-04T19:38:39.372Z,96046.97
2018-06-04T19:42:04.163Z,96047.14
2018-06-04T19:45:28.970Z,96057.20
2018-06-04T19:48:53.761Z,96058.80
2018-06-04T19:52:18.558Z,96069.47
2018-06-04T19:55:43.562Z,96065.27
2018-06-04T19:59:08.386Z,96070.73
2018-06-04T20:02:55.549Z,96073.30
2018-06-04T20:06:28.808Z,96072.07
2018-06-04T20:09:53.747Z,96082.50
2018-06-04T20:13:18.600Z,96088.46
2018-06-04T20:16:43.491Z,96092.70
2018-06-04T20:20:08.967Z,96112.53
2018-06-04T20:23:33.738Z,96131.95
2018-06-04T20:26:58.417Z,96144.08
2018-06-04T20:30:23.186Z,96148.47
2018-06-04T20:33:48.005Z,96148.77
2018-06-04T20:37:12.373Z,96147.09
2018-06-04T20:40:37.108Z,96137.52
2018-06-04T20:44:01.821Z,96143.43
2018-06-04T20:47:26.817Z,96142.69
2018-06-04T20:50:51.713Z,96134.63
2018-06-04T20:54:16.491Z,96131.36
2018-06-04T20:57:43.768Z,96122.03
2018-06-04T21:01:08.311Z,96113.98
2018-06-04T21:04:33.165Z,96109.72
2018-06-04T21:07:57.959Z,96115.12
2018-06-04T21:11:22.969Z,96123.81
2018-06-04T21:14:47.798Z,96120.16
2018-06-04T21:18:12.765Z,96111.17
2018-06-04T21:21:37.560Z,96112.78
2018-06-04T21:25:02.001Z,96114.86
2018-06-04T21:28:26.980Z,96122.78
2018-06-04T21:31:52.003Z,96126.33
2018-06-04T21:35:17.006Z,96122.37
2018-06-04T21:38:41.945Z,96119.75
2018-06-04T21:42:06.500Z,96130.79
2018-06-04T21:45:31.424Z,96140.88
2018-06-04T21:48:56.211Z,96140.07
2018-06-04T21:52:21.004Z,96143.38
2018-06-04T21:55:45.802Z,96148.70
2018-06-04T21:59:10.326Z,96151.94
2018-06-04T22:02:34.902Z,96153.72
2018-06-04T22:05:59.746Z,96148.94
2018-06-04T22:09:24.641Z,96144.01
2018-06-04T22:12:49.510Z,96141.73
2018-06-04T22:16:14.310Z,96133.11
2018-06-04T22:19:39.064Z,96129.22
2018-06-04T22:23:03.683Z,96130.80
2018-06-04T22:26:28.465Z,96119.23
2018-06-04T22:29:53.510Z,96111.16
2018-06-04T22:33:18.348Z,96100.30
2018-06-04T22:36:42.970Z,96096.11
2018-06-04T22:40:07.796Z,96084.23
2018-06-04T22:43:32.533Z,96081.39
2018-06-04T22:46:57.391Z,96078.56
2018-06-04T22:50:22.308Z,96075.48
2018-06-04T22:53:47.112Z,96073.30
2018-06-04T22:57:11.862Z,96070.16
2018-06-04T23:00:36.331Z,96071.69
2018-06-04T23:04:01.148Z,96062.84
2018-06-04T23:07:25.933Z,96057.75
2018-06-04T23:10:51.876Z,96046.91
2018-06-04T23:14:16.626Z,96048.13
2018-06-04T23:17:41.512Z,96046.64
2018-06-04T23:21:06.076Z,96051.20
2018-06-04T23:24:30.419Z,96056.06
2018-06-04T23:27:55.259Z,96052.31
2018-06-04T23:31:19.984Z,96053.81
2018-06-04T23:34:44.787Z,96052.25
2018-06-04T23:38:09.492Z,96059.84
2018-06-04T23:41:34.266Z,96047.70
2018-06-04T23:44:58.726Z,96044.39
2018-06-04T23:48:23.669Z,96044.41
2018-06-04T23:51:48.546Z,96042.78
2018-06-04T23:55:13.820Z,96052.25
2018-06-04T23:58:39.108Z,96047.95
